aviador You're here:

KAUS Decoded Metar

AUSTIN in TX, USA
Report Time2017-07-22 23:53:00
UTC Time2017-07-23 00:48:14
Flight Rules vfr VFR
Wind170° at 07 kt
W.Decomp.*RWY 17: 7.0 kt HW 0.7 kt LCW
W.Rank170° ranks 2
Current wind is below 170° avg. (8.8)
Visibility9999 m
Phenomena:N/A
Clouds:Few 080 Hf
Few 200 Hf
Scattered 250 Hf
Expected CloudBase > 7,600 ft AGL from Temp-Dew spread
CeilingNone
Temp37°C (ISA +23)
Dew Point18°C (33% RH)
Heat Index38.7°C
QNH1010 hPa
Density Alt3,527 ft
Elevation545 ft
Report Wrong Elevation
Raw Report
KAUS 222353Z 17007KT 10SM FEW080 FEW200 SCT250 37/18 A2984 RMK AO2
SLP091 T03720178 10383 20356 56014=

Extra information for KAUS:More info

Metar Taf Metar & Taf Last 4 Metars F.Rules Stats Wind Profile Meteogram Temp Stats Airport Information Weather charts Add Link Nearby VenuesMetar ALERT Operation Metar Decoded Social comments

AIRNAV info for KAUS